Time;durP1;ratioP1;P1;durP2;ratioP2;P2;SDS_P1;SDS_P2;PMS_P1;PMS_P2;Temp;Humidity;BMP_temperature;BMP_pressure;BME280_temperature;BME280_humidity;BME280_pressure;Samples;Min_cycle;Max_cycle;Signal;HPM_P1;HPM_P2
2021/08/03 00:00:58;;;;;;;;;;;27.30;93.80;;;;;;1913662;74;20154;-88
2021/08/03 00:03:29;;;;;;;;;;;27.40;93.80;;;;;;1883750;74;20171;-88
2021/08/03 00:06:00;;;;;;;;;;;27.40;93.80;;;;;;1910180;74;20196;-89
2021/08/03 00:08:31;;;;;;;;;;;27.50;93.80;;;;;;1901192;75;20531;-89
2021/08/03 00:11:01;;;;;;;;;;;27.50;93.80;;;;;;1888954;75;20479;-87
2021/08/03 00:13:32;;;;;;;;;;;27.60;93.80;;;;;;1881210;75;20208;-90
2021/08/03 00:16:20;;;;;;;;;;;27.60;93.50;;;;;;1890082;75;20178;-89
2021/08/03 00:18:50;;;;;;;;;;;27.70;93.30;;;;;;1857743;76;20543;-89
2021/08/03 00:21:20;;;;;;;;;;;27.70;93.20;;;;;;1884844;75;20196;-89
2021/08/03 00:23:57;;;;;;;;;;;27.80;93.10;;;;;;1893237;75;20174;-88
2021/08/03 00:26:32;;;;;;;;;;;27.80;93.10;;;;;;1883854;75;20465;-86
2021/08/03 00:29:01;;;;;;;;;;;27.80;92.90;;;;;;1887287;75;20212;-85
2021/08/03 00:31:31;;;;;;;;;;;27.80;93.00;;;;;;1885682;75;20173;-85
2021/08/03 00:34:01;;;;;;;;;;;27.80;93.00;;;;;;1879466;74;20422;-85
2021/08/03 00:36:31;;;;;;;;;;;27.90;92.80;;;;;;1885073;75;20249;-86
2021/08/03 00:39:08;;;;;;;;;;;27.90;92.80;;;;;;1891700;75;20170;-88
2021/08/03 00:41:32;;;;;;;;;;;27.90;92.70;;;;;;1888147;75;20531;-86
2021/08/03 00:44:02;;;;;;;;;;;28.00;92.70;;;;;;1887021;75;20237;-88
2021/08/03 00:46:31;;;;;;;;;;;28.00;92.90;;;;;;1885686;75;20190;-87
2021/08/03 00:49:01;;;;;;;;;;;28.00;92.80;;;;;;1881983;75;20341;-88
2021/08/03 00:51:32;;;;;;;;;;;28.00;92.50;;;;;;1906923;73;20165;-89
2021/08/03 00:54:02;;;;;;;;;;;28.00;92.40;;;;;;1890026;75;20244;-90
2021/08/03 00:56:31;;;;;;;;;;;28.10;92.20;;;;;;1898764;75;20214;-91
2021/08/03 00:59:03;;;;;;;;;;;28.00;92.20;;;;;;1882580;75;20236;-88
2021/08/03 01:01:34;;;;;;;;;;;28.00;92.40;;;;;;1871360;76;20211;-89
2021/08/03 01:04:10;;;;;;;;;;;28.10;92.40;;;;;;1886158;75;21006;-87
2021/08/03 01:06:40;;;;;;;;;;;28.20;92.20;;;;;;1887991;75;20236;-86
2021/08/03 01:09:11;;;;;;;;;;;28.30;92.20;;;;;;1890022;75;20160;-89
2021/08/03 01:11:42;;;;;;;;;;;28.40;91.70;;;;;;1888262;75;20273;-87
2021/08/03 01:14:12;;;;;;;;;;;28.50;91.60;;;;;;1875305;74;20239;-87
2021/08/03 01:16:44;;;;;;;;;;;28.50;91.30;;;;;;1915533;74;20179;-85
2021/08/03 01:19:17;;;;;;;;;;;28.60;91.10;;;;;;1867595;76;20206;-84
2021/08/03 01:21:48;;;;;;;;;;;28.70;91.00;;;;;;1881399;75;20157;-86
2021/08/03 01:24:19;;;;;;;;;;;28.80;90.90;;;;;;1886145;75;20160;-87
2021/08/03 01:26:50;;;;;;;;;;;28.80;90.90;;;;;;1921026;73;20199;-86
2021/08/03 01:29:21;;;;;;;;;;;28.80;90.50;;;;;;1883779;75;20128;-86
2021/08/03 01:31:52;;;;;;;;;;;28.90;90.50;;;;;;1887194;75;20217;-87
2021/08/03 01:34:22;;;;;;;;;;;29.00;90.50;;;;;;1887332;75;20278;-86
2021/08/03 01:36:53;;;;;;;;;;;29.00;90.20;;;;;;1888075;75;20275;-85
2021/08/03 01:39:24;;;;;;;;;;;29.00;90.30;;;;;;1879873;75;20219;-85
2021/08/03 01:42:12;;;;;;;;;;;29.00;90.30;;;;;;1884876;75;20189;-86
2021/08/03 01:44:40;;;;;;;;;;;29.10;90.30;;;;;;1858109;75;20219;-87
2021/08/03 01:47:10;;;;;;;;;;;29.10;89.60;;;;;;1893398;75;20298;-87
2021/08/03 01:49:59;;;;;;;;;;;29.20;89.60;;;;;;1889826;75;20185;-86
2021/08/03 01:52:24;;;;;;;;;;;29.20;89.80;;;;;;1886715;75;20152;-86
2021/08/03 01:54:55;;;;;;;;;;;29.20;89.50;;;;;;1886200;74;20246;-85
2021/08/03 01:57:25;;;;;;;;;;;29.20;89.90;;;;;;1867796;76;20565;-85
2021/08/03 01:59:55;;;;;;;;;;;29.20;89.90;;;;;;1887551;75;20201;-86
2021/08/03 02:02:25;;;;;;;;;;;29.30;90.00;;;;;;1912004;75;20145;-88
2021/08/03 02:04:56;;;;;;;;;;;29.30;90.00;;;;;;1888854;75;20194;-87
2021/08/03 02:07:26;;;;;;;;;;;29.40;90.00;;;;;;1884147;75;20173;-88
2021/08/03 02:09:57;;;;;;;;;;;29.50;89.50;;;;;;1887988;75;20240;-89
2021/08/03 02:12:27;;;;;;;;;;;29.50;88.70;;;;;;1880416;75;20207;-89
2021/08/03 02:14:56;;;;;;;;;;;29.60;89.40;;;;;;1889258;75;20228;-89
2021/08/03 02:17:26;;;;;;;;;;;29.60;88.90;;;;;;1886961;75;20213;-78
2021/08/03 02:19:56;;;;;;;;;;;29.60;88.50;;;;;;1887211;75;20163;-78
2021/08/03 02:22:26;;;;;;;;;;;29.60;89.30;;;;;;1897235;74;20170;-78
2021/08/03 02:24:55;;;;;;;;;;;29.70;89.40;;;;;;1894294;75;20468;-77
2021/08/03 02:27:30;;;;;;;;;;;29.70;89.00;;;;;;1890238;75;20235;-78
2021/08/03 02:30:00;;;;;;;;;;;29.90;88.20;;;;;;1868122;75;20168;-79
2021/08/03 02:32:30;;;;;;;;;;;30.00;86.90;;;;;;1892035;75;20248;-78
2021/08/03 02:35:01;;;;;;;;;;;30.00;86.80;;;;;;1889713;75;20202;-79
2021/08/03 02:37:32;;;;;;;;;;;30.10;86.90;;;;;;1892913;75;20221;-77
2021/08/03 02:40:08;;;;;;;;;;;30.10;86.60;;;;;;1888693;75;20213;-78
2021/08/03 02:42:39;;;;;;;;;;;30.10;86.30;;;;;;1867799;75;20209;-80
2021/08/03 02:45:27;;;;;;;;;;;30.10;86.90;;;;;;1899111;75;20142;-78
2021/08/03 02:48:18;;;;;;;;;;;30.20;86.50;;;;;;1897921;74;20421;-78
2021/08/03 02:51:02;;;;;;;;;;;30.50;85.90;;;;;;1913635;74;20238;-77
2021/08/03 02:53:33;;;;;;;;;;;30.60;83.80;;;;;;1921246;74;20216;-77
2021/08/03 02:56:09;;;;;;;;;;;30.60;83.40;;;;;;1924930;74;20176;-80
2021/08/03 02:58:39;;;;;;;;;;;30.50;84.20;;;;;;1921598;74;20228;-79
2021/08/03 03:01:10;;;;;;;;;;;30.50;84.20;;;;;;1911338;74;20172;-79
2021/08/03 03:03:41;;;;;;;;;;;30.60;84.10;;;;;;1904699;74;20482;-77
2021/08/03 03:06:12;;;;;;;;;;;30.60;83.80;;;;;;1897696;74;20565;-78
2021/08/03 03:08:43;;;;;;;;;;;30.50;84.20;;;;;;1915733;73;20245;-78
2021/08/03 03:11:13;;;;;;;;;;;30.60;83.70;;;;;;1890528;75;20220;-79
2021/08/03 03:13:44;;;;;;;;;;;30.70;83.00;;;;;;1900036;74;20194;-79
2021/08/03 03:16:15;;;;;;;;;;;30.90;82.30;;;;;;1895345;74;20252;-78
2021/08/03 03:18:45;;;;;;;;;;;31.00;82.20;;;;;;1903981;75;20158;-78
2021/08/03 03:21:16;;;;;;;;;;;31.00;82.40;;;;;;1900559;75;20146;-78
2021/08/03 03:23:49;;;;;;;;;;;31.00;81.40;;;;;;1903499;75;20249;-77
2021/08/03 03:26:19;;;;;;;;;;;31.10;81.70;;;;;;1898522;75;20177;-79
2021/08/03 03:28:52;;;;;;;;;;;31.10;81.10;;;;;;1919202;75;20220;-77
2021/08/03 03:31:22;;;;;;;;;;;31.00;81.20;;;;;;1900962;75;20431;-76
2021/08/03 03:33:52;;;;;;;;;;;31.10;81.70;;;;;;1900637;75;20436;-77
2021/08/03 03:36:28;;;;;;;;;;;31.00;81.90;;;;;;1884798;75;20558;-78
2021/08/03 03:39:01;;;;;;;;;;;30.90;82.70;;;;;;1913409;74;20180;-78
2021/08/03 03:41:32;;;;;;;;;;;30.80;82.00;;;;;;1945576;73;20172;-78
2021/08/03 03:44:02;;;;;;;;;;;30.80;82.50;;;;;;1949791;73;20200;-76
2021/08/03 03:49:41;;;;;;;;;;;30.50;83.90;;;;;;1891256;74;20194;-78
2021/08/03 03:52:22;;;;;;;;;;;30.50;83.90;;;;;;1767589;79;20572;-78
2021/08/03 03:54:53;;;;;;;;;;;30.50;84.50;;;;;;1883641;74;20330;-78
2021/08/03 03:57:23;;;;;;;;;;;30.70;84.10;;;;;;1861171;76;20128;-78
2021/08/03 03:59:54;;;;;;;;;;;30.80;84.40;;;;;;1861284;75;20659;-77
2021/08/03 04:02:24;;;;;;;;;;;30.90;83.70;;;;;;1857311;76;20283;-78
2021/08/03 04:04:57;;;;;;;;;;;31.10;83.00;;;;;;1848629;76;20201;-78
2021/08/03 04:07:27;;;;;;;;;;;31.10;81.70;;;;;;1859245;76;20516;-78
2021/08/03 04:09:58;;;;;;;;;;;31.00;82.10;;;;;;1860066;76;20535;-78
2021/08/03 04:12:28;;;;;;;;;;;30.90;82.30;;;;;;1864201;76;20591;-78
2021/08/03 04:14:58;;;;;;;;;;;30.90;83.00;;;;;;1863373;76;20164;-79
2021/08/03 04:17:27;;;;;;;;;;;30.90;82.50;;;;;;1859795;76;20169;-78
2021/08/03 04:19:57;;;;;;;;;;;31.10;82.10;;;;;;1859591;76;20144;-80
2021/08/03 04:22:27;;;;;;;;;;;31.10;81.00;;;;;;1864059;75;20207;-78
2021/08/03 04:24:56;;;;;;;;;;;31.10;80.40;;;;;;1856737;76;20174;-78
2021/08/03 04:27:27;;;;;;;;;;;31.10;80.90;;;;;;1898201;75;20136;-79
2021/08/03 04:29:56;;;;;;;;;;;31.20;82.00;;;;;;1891626;75;20322;-78
2021/08/03 04:32:26;;;;;;;;;;;31.20;80.60;;;;;;1899796;75;20144;-79
2021/08/03 04:34:56;;;;;;;;;;;31.30;80.60;;;;;;1888528;75;20662;-78
2021/08/03 04:37:25;;;;;;;;;;;31.40;80.10;;;;;;1907979;75;20166;-79
2021/08/03 04:39:55;;;;;;;;;;;31.50;79.60;;;;;;1890774;74;20244;-80
2021/08/03 04:42:24;;;;;;;;;;;31.60;79.50;;;;;;1908384;75;20190;-79
2021/08/03 04:44:54;;;;;;;;;;;31.70;79.80;;;;;;1887005;73;20168;-80
2021/08/03 04:47:23;;;;;;;;;;;31.80;79.80;;;;;;1882509;75;20182;-78
2021/08/03 04:49:53;;;;;;;;;;;31.90;79.90;;;;;;1873117;75;20213;-78
2021/08/03 04:52:24;;;;;;;;;;;32.00;78.60;;;;;;1884559;74;20431;-78
2021/08/03 04:54:55;;;;;;;;;;;32.00;78.10;;;;;;1870802;74;20212;-78
2021/08/03 04:57:27;;;;;;;;;;;31.90;78.00;;;;;;1887382;75;20586;-81
2021/08/03 04:59:56;;;;;;;;;;;31.80;78.40;;;;;;1880556;75;20472;-76
2021/08/03 05:02:26;;;;;;;;;;;31.80;78.10;;;;;;1888633;75;20455;-76
2021/08/03 05:04:58;;;;;;;;;;;31.80;78.10;;;;;;1883334;75;21050;-77
2021/08/03 05:07:28;;;;;;;;;;;31.80;78.80;;;;;;1880602;75;20201;-78
2021/08/03 05:09:59;;;;;;;;;;;31.80;77.50;;;;;;1879765;75;20438;-79
2021/08/03 05:12:30;;;;;;;;;;;31.80;78.30;;;;;;1894509;75;20242;-78
2021/08/03 05:15:00;;;;;;;;;;;31.80;77.90;;;;;;1881853;75;20250;-78
2021/08/03 05:17:30;;;;;;;;;;;31.80;78.50;;;;;;1881455;75;20141;-77
2021/08/03 05:20:00;;;;;;;;;;;31.80;79.10;;;;;;1884649;75;20570;-79
2021/08/03 05:22:30;;;;;;;;;;;31.90;78.60;;;;;;1876968;75;20235;-77
2021/08/03 05:25:00;;;;;;;;;;;32.00;78.50;;;;;;1875976;75;20289;-77
2021/08/03 05:27:30;;;;;;;;;;;32.00;77.70;;;;;;1902412;75;20177;-78
2021/08/03 05:29:59;;;;;;;;;;;32.10;76.10;;;;;;1893923;74;20208;-77
2021/08/03 05:32:29;;;;;;;;;;;32.10;76.50;;;;;;1886650;74;20190;-77
2021/08/03 05:34:58;;;;;;;;;;;32.10;77.10;;;;;;1881456;74;20187;-77
2021/08/03 05:37:28;;;;;;;;;;;32.10;77.60;;;;;;1881362;74;20195;-77
2021/08/03 05:39:59;;;;;;;;;;;32.00;77.60;;;;;;1880005;74;20201;-77
2021/08/03 05:42:29;;;;;;;;;;;32.00;77.60;;;;;;1897397;75;20462;-77
2021/08/03 05:44:58;;;;;;;;;;;32.00;78.10;;;;;;1901365;75;20138;-76
2021/08/03 05:47:30;;;;;;;;;;;31.90;78.30;;;;;;1887281;75;20229;-77
2021/08/03 05:49:59;;;;;;;;;;;31.90;78.20;;;;;;1881686;75;20204;-78
2021/08/03 05:52:29;;;;;;;;;;;32.00;78.40;;;;;;1857947;77;20255;-78
2021/08/03 05:54:59;;;;;;;;;;;32.00;77.70;;;;;;1847030;77;20160;-78
2021/08/03 05:57:30;;;;;;;;;;;32.20;77.00;;;;;;1854755;77;20271;-77
2021/08/03 05:59:59;;;;;;;;;;;32.20;76.30;;;;;;1848023;76;20179;-78
2021/08/03 06:02:29;;;;;;;;;;;32.10;77.00;;;;;;1859955;77;20170;-78
2021/08/03 06:04:59;;;;;;;;;;;32.10;77.20;;;;;;1859928;77;20621;-78
2021/08/03 06:07:30;;;;;;;;;;;32.10;76.20;;;;;;1858948;77;20231;-78
2021/08/03 06:10:00;;;;;;;;;;;32.20;76.90;;;;;;1850136;75;20488;-78
2021/08/03 06:12:29;;;;;;;;;;;32.20;76.70;;;;;;1846192;77;20248;-77
2021/08/03 06:15:01;;;;;;;;;;;32.30;78.00;;;;;;1860012;77;20192;-77
2021/08/03 06:17:31;;;;;;;;;;;32.20;78.40;;;;;;1861297;77;20464;-77
2021/08/03 06:20:01;;;;;;;;;;;32.10;78.30;;;;;;1862374;77;20157;-77
2021/08/03 06:22:32;;;;;;;;;;;32.00;78.80;;;;;;1863431;76;20596;-78
2021/08/03 06:25:02;;;;;;;;;;;32.00;79.10;;;;;;1864982;76;20263;-78
2021/08/03 06:27:32;;;;;;;;;;;32.00;79.80;;;;;;1857963;76;20199;-77
2021/08/03 06:30:03;;;;;;;;;;;32.00;79.90;;;;;;1878282;76;20226;-78
2021/08/03 06:32:34;;;;;;;;;;;32.00;80.10;;;;;;1862868;77;20177;-78
2021/08/03 06:35:04;;;;;;;;;;;31.90;80.30;;;;;;1863342;77;20230;-78
2021/08/03 06:37:34;;;;;;;;;;;31.90;81.40;;;;;;1836841;77;20249;-76
2021/08/03 06:40:04;;;;;;;;;;;31.80;81.00;;;;;;1854177;77;20204;-77
2021/08/03 06:42:35;;;;;;;;;;;31.80;81.20;;;;;;1850859;77;20243;-77
2021/08/03 06:45:06;;;;;;;;;;;31.70;81.90;;;;;;1851641;76;20244;-77
2021/08/03 06:47:37;;;;;;;;;;;31.70;82.50;;;;;;1857535;76;20202;-77
2021/08/03 06:50:07;;;;;;;;;;;31.60;83.20;;;;;;1861195;74;20212;-76
2021/08/03 06:52:37;;;;;;;;;;;31.60;82.80;;;;;;1901988;74;20186;-76
2021/08/03 06:55:08;;;;;;;;;;;31.50;83.30;;;;;;1883771;75;20428;-77
2021/08/03 06:57:39;;;;;;;;;;;31.50;83.10;;;;;;1890247;75;20514;-76
2021/08/03 07:00:09;;;;;;;;;;;31.50;83.20;;;;;;1880481;75;20164;-77
2021/08/03 07:02:43;;;;;;;;;;;31.50;83.70;;;;;;1871856;75;20212;-76
2021/08/03 07:05:16;;;;;;;;;;;31.50;83.30;;;;;;1891653;75;20569;-77
2021/08/03 07:07:46;;;;;;;;;;;31.60;83.90;;;;;;1880331;75;20188;-77
2021/08/03 07:10:16;;;;;;;;;;;31.80;81.00;;;;;;1882330;75;20624;-76
2021/08/03 07:12:46;;;;;;;;;;;31.90;81.60;;;;;;1880709;75;20169;-77
2021/08/03 07:15:15;;;;;;;;;;;31.80;81.30;;;;;;1889105;75;20173;-77
2021/08/03 07:17:45;;;;;;;;;;;31.70;81.20;;;;;;1889574;75;20180;-77
2021/08/03 07:20:15;;;;;;;;;;;31.70;81.80;;;;;;1879984;75;20188;-78
2021/08/03 07:22:45;;;;;;;;;;;31.80;82.20;;;;;;1886975;75;20490;-76
2021/08/03 07:25:15;;;;;;;;;;;32.00;80.90;;;;;;1879453;75;20475;-77
2021/08/03 07:27:45;;;;;;;;;;;32.00;80.50;;;;;;1886278;75;20204;-78
2021/08/03 07:30:17;;;;;;;;;;;32.10;80.90;;;;;;1879897;75;20204;-77
2021/08/03 07:32:47;;;;;;;;;;;32.10;80.60;;;;;;1889104;75;20487;-77
2021/08/03 07:35:17;;;;;;;;;;;32.10;81.10;;;;;;1882674;75;20164;-78
2021/08/03 07:37:46;;;;;;;;;;;32.00;80.70;;;;;;1882814;75;20233;-78
2021/08/03 07:40:16;;;;;;;;;;;32.00;81.10;;;;;;1878806;75;20176;-77
2021/08/03 07:42:46;;;;;;;;;;;32.10;80.40;;;;;;1892731;75;20240;-77
2021/08/03 07:45:15;;;;;;;;;;;32.10;80.20;;;;;;1895637;75;20189;-76
2021/08/03 07:47:45;;;;;;;;;;;32.10;80.50;;;;;;1864089;75;20180;-77
2021/08/03 07:50:15;;;;;;;;;;;32.10;80.40;;;;;;1890943;75;20186;-77
2021/08/03 07:52:44;;;;;;;;;;;32.10;80.80;;;;;;1908041;75;20217;-77
2021/08/03 07:55:14;;;;;;;;;;;32.20;79.70;;;;;;1893457;75;20217;-77
2021/08/03 07:57:44;;;;;;;;;;;32.20;78.10;;;;;;1890735;75;20207;-76
2021/08/03 08:00:14;;;;;;;;;;;32.20;77.80;;;;;;1888543;75;20215;-77
2021/08/03 08:02:47;;;;;;;;;;;32.20;78.30;;;;;;1889981;74;20561;-79
2021/08/03 08:05:18;;;;;;;;;;;32.20;78.70;;;;;;1887945;75;20445;-78
2021/08/03 08:07:58;;;;;;;;;;;32.30;78.90;;;;;;1894394;75;20392;-76
2021/08/03 08:10:25;;;;;;;;;;;32.40;78.60;;;;;;1889630;75;20156;-76
2021/08/03 08:13:20;;;;;;;;;;;32.50;78.40;;;;;;1810075;78;20505;-77
2021/08/03 08:15:53;;;;;;;;;;;32.50;77.90;;;;;;1872803;75;20124;-77
2021/08/03 08:18:23;;;;;;;;;;;32.60;78.20;;;;;;1873502;76;20421;-77
2021/08/03 08:20:52;;;;;;;;;;;32.60;78.60;;;;;;1889400;75;20130;-78
2021/08/03 08:23:22;;;;;;;;;;;32.60;77.10;;;;;;1901324;74;20213;-77
2021/08/03 08:25:53;;;;;;;;;;;32.70;76.60;;;;;;1890320;75;20170;-78
2021/08/03 08:28:26;;;;;;;;;;;32.60;76.80;;;;;;1881995;75;20202;-77
2021/08/03 08:30:56;;;;;;;;;;;32.60;77.30;;;;;;1879860;75;20497;-77
2021/08/03 08:33:28;;;;;;;;;;;32.50;77.40;;;;;;1888890;75;20213;-77
2021/08/03 08:35:59;;;;;;;;;;;32.60;76.90;;;;;;1884135;75;20585;-77
2021/08/03 08:38:29;;;;;;;;;;;32.60;76.00;;;;;;1884121;75;20465;-76
2021/08/03 08:40:59;;;;;;;;;;;32.60;76.40;;;;;;1881248;75;20180;-78
2021/08/03 08:43:29;;;;;;;;;;;32.60;76.80;;;;;;1878633;75;20400;-79
2021/08/03 08:45:58;;;;;;;;;;;32.50;77.10;;;;;;1881514;75;20569;-78
2021/08/03 08:48:29;;;;;;;;;;;32.60;76.90;;;;;;1882008;75;20255;-77
2021/08/03 08:50:59;;;;;;;;;;;32.50;77.00;;;;;;1881876;75;20418;-77
2021/08/03 08:53:29;;;;;;;;;;;32.40;77.70;;;;;;1887028;75;20243;-78
2021/08/03 08:55:58;;;;;;;;;;;32.40;77.90;;;;;;1879899;75;20183;-78
2021/08/03 08:58:29;;;;;;;;;;;32.40;77.80;;;;;;1883043;75;20127;-77
2021/08/03 09:01:02;;;;;;;;;;;32.30;77.60;;;;;;1855491;75;20197;-77
2021/08/03 09:03:32;;;;;;;;;;;32.30;77.50;;;;;;1887835;75;20136;-77
2021/08/03 09:06:05;;;;;;;;;;;32.30;77.50;;;;;;1884036;75;20444;-77
2021/08/03 09:08:35;;;;;;;;;;;32.20;77.80;;;;;;1887752;75;20253;-77
2021/08/03 09:11:06;;;;;;;;;;;32.20;78.10;;;;;;1914146;73;20126;-78
2021/08/03 09:13:37;;;;;;;;;;;32.10;78.40;;;;;;1883264;75;20264;-80
2021/08/03 09:16:07;;;;;;;;;;;32.00;78.40;;;;;;1910155;73;20176;-77
2021/08/03 09:18:38;;;;;;;;;;;32.00;78.60;;;;;;1920431;73;20233;-77
2021/08/03 09:21:08;;;;;;;;;;;32.10;78.90;;;;;;1914243;73;20445;-77
2021/08/03 09:23:40;;;;;;;;;;;32.10;78.80;;;;;;1906823;75;20187;-76
2021/08/03 09:26:09;;;;;;;;;;;32.10;78.30;;;;;;1908799;75;20184;-77
2021/08/03 09:28:40;;;;;;;;;;;32.10;78.80;;;;;;1921401;73;20193;-77
2021/08/03 09:31:11;;;;;;;;;;;32.10;78.80;;;;;;1875975;75;20823;-77
2021/08/03 09:33:42;;;;;;;;;;;32.00;78.20;;;;;;1877447;74;20179;-78
2021/08/03 09:36:12;;;;;;;;;;;32.00;79.20;;;;;;1868400;75;20131;-79
2021/08/03 09:38:42;;;;;;;;;;;31.90;78.90;;;;;;1900618;75;20197;-78
2021/08/03 09:41:12;;;;;;;;;;;31.90;79.00;;;;;;1913572;74;20249;-78
2021/08/03 09:43:42;;;;;;;;;;;31.90;79.30;;;;;;1902543;74;20253;-78
2021/08/03 09:46:12;;;;;;;;;;;32.00;79.20;;;;;;1899844;74;20196;-79
2021/08/03 09:48:44;;;;;;;;;;;31.90;79.50;;;;;;1884222;75;20234;-79
2021/08/03 09:51:14;;;;;;;;;;;31.90;80.10;;;;;;1910796;73;20205;-78
2021/08/03 09:53:46;;;;;;;;;;;31.80;80.40;;;;;;1904604;74;20471;-79
2021/08/03 09:56:17;;;;;;;;;;;31.80;80.60;;;;;;1900759;74;20196;-78
2021/08/03 09:58:48;;;;;;;;;;;31.80;80.40;;;;;;1918837;74;20213;-79
2021/08/03 10:01:19;;;;;;;;;;;31.80;81.70;;;;;;1901984;74;20155;-79
2021/08/03 10:03:49;;;;;;;;;;;31.80;81.00;;;;;;1903068;74;20428;-78
2021/08/03 10:06:19;;;;;;;;;;;31.60;80.80;;;;;;1892211;74;20475;-78
2021/08/03 10:08:50;;;;;;;;;;;31.60;81.20;;;;;;1900188;74;20172;-79
2021/08/03 10:11:20;;;;;;;;;;;31.60;81.10;;;;;;1914823;74;20186;-79
2021/08/03 10:13:51;;;;;;;;;;;31.60;81.30;;;;;;1912687;74;20161;-82
2021/08/03 10:16:21;;;;;;;;;;;31.60;81.30;;;;;;1901257;74;20137;-80
2021/08/03 10:18:52;;;;;;;;;;;31.70;81.50;;;;;;1913867;74;20510;-78
2021/08/03 10:21:24;;;;;;;;;;;31.70;81.30;;;;;;1916473;74;20997;-80
2021/08/03 10:23:54;;;;;;;;;;;31.70;81.30;;;;;;1922614;74;20166;-78
2021/08/03 10:26:24;;;;;;;;;;;31.70;81.20;;;;;;1910362;74;20184;-79
2021/08/03 10:28:55;;;;;;;;;;;31.70;81.40;;;;;;1900137;74;20130;-79
2021/08/03 10:31:26;;;;;;;;;;;31.70;81.70;;;;;;1907512;75;20278;-79
2021/08/03 10:33:56;;;;;;;;;;;31.60;81.80;;;;;;1880974;75;20168;-79
2021/08/03 10:36:27;;;;;;;;;;;31.60;82.40;;;;;;1902578;75;20197;-79
2021/08/03 10:38:58;;;;;;;;;;;31.60;82.00;;;;;;1896095;74;20564;-77
2021/08/03 10:41:28;;;;;;;;;;;31.50;81.60;;;;;;1908512;75;20178;-79
2021/08/03 10:44:01;;;;;;;;;;;31.50;80.30;;;;;;1883189;75;20179;-78
2021/08/03 10:46:35;;;;;;;;;;;31.40;79.80;;;;;;1822256;77;20242;-78
2021/08/03 10:49:00;;;;;;;;;;;31.40;79.00;;;;;;1854077;76;20256;-79
2021/08/03 10:51:31;;;;;;;;;;;31.40;78.70;;;;;;1879730;74;20192;-78
2021/08/03 10:54:02;;;;;;;;;;;31.30;78.90;;;;;;1903936;75;20239;-78
2021/08/03 10:56:36;;;;;;;;;;;31.30;79.40;;;;;;1899735;74;20213;-79
2021/08/03 10:59:05;;;;;;;;;;;31.30;79.80;;;;;;1905396;74;20193;-78
2021/08/03 11:01:36;;;;;;;;;;;31.20;80.30;;;;;;1900727;75;20177;-78
2021/08/03 11:04:06;;;;;;;;;;;31.10;80.80;;;;;;1909565;74;20178;-79
2021/08/03 11:06:36;;;;;;;;;;;31.10;81.70;;;;;;1890407;74;20177;-80
2021/08/03 11:09:06;;;;;;;;;;;31.00;82.00;;;;;;1893399;75;20247;-79
2021/08/03 11:11:36;;;;;;;;;;;31.00;82.70;;;;;;1899492;75;20206;-81
2021/08/03 11:14:06;;;;;;;;;;;30.80;83.20;;;;;;1904266;75;20481;-77
2021/08/03 11:16:41;;;;;;;;;;;30.80;83.70;;;;;;1906185;75;20227;-79
2021/08/03 11:19:09;;;;;;;;;;;30.70;84.50;;;;;;1910590;75;20111;-80
2021/08/03 11:21:40;;;;;;;;;;;30.60;85.60;;;;;;1890575;74;20788;-80
2021/08/03 11:24:14;;;;;;;;;;;30.50;86.50;;;;;;1905234;74;20157;-79
2021/08/03 11:26:44;;;;;;;;;;;30.40;87.10;;;;;;1912222;74;20217;-78
2021/08/03 11:29:14;;;;;;;;;;;30.30;87.60;;;;;;1915946;74;20199;-80
2021/08/03 11:31:45;;;;;;;;;;;30.20;87.70;;;;;;1909147;74;20477;-78
2021/08/03 11:34:16;;;;;;;;;;;30.10;87.90;;;;;;1914716;74;20504;-79
2021/08/03 11:36:47;;;;;;;;;;;30.00;87.90;;;;;;1905440;74;20216;-79
2021/08/03 11:39:20;;;;;;;;;;;29.90;88.20;;;;;;1902971;74;20215;-80
2021/08/03 11:41:50;;;;;;;;;;;29.70;88.30;;;;;;1903280;74;20216;-79
2021/08/03 11:44:20;;;;;;;;;;;29.60;88.50;;;;;;1922326;74;20220;-79
2021/08/03 11:46:51;;;;;;;;;;;29.60;88.60;;;;;;1898391;74;20203;-79
2021/08/03 11:49:22;;;;;;;;;;;29.50;88.50;;;;;;1905954;74;20205;-78
2021/08/03 11:51:51;;;;;;;;;;;29.40;88.90;;;;;;1899393;74;20234;-76
2021/08/03 11:54:21;;;;;;;;;;;29.40;88.90;;;;;;1901879;74;20233;-76
2021/08/03 11:56:51;;;;;;;;;;;29.30;89.30;;;;;;1889668;75;20197;-77
2021/08/03 11:59:22;;;;;;;;;;;29.30;89.60;;;;;;1892328;75;20212;-76
2021/08/03 12:01:53;;;;;;;;;;;29.20;89.90;;;;;;1888181;75;20114;-76
2021/08/03 12:04:23;;;;;;;;;;;29.10;90.20;;;;;;1890914;75;20192;-76
2021/08/03 12:06:54;;;;;;;;;;;29.10;90.40;;;;;;1888438;75;20385;-77
2021/08/03 12:09:25;;;;;;;;;;;29.00;90.50;;;;;;1881080;75;20184;-77
2021/08/03 12:11:56;;;;;;;;;;;28.90;90.60;;;;;;1892404;75;20283;-76
2021/08/03 12:14:27;;;;;;;;;;;28.90;90.90;;;;;;1890767;75;20148;-78
2021/08/03 12:16:57;;;;;;;;;;;28.90;90.90;;;;;;1895392;75;20471;-76
2021/08/03 12:19:28;;;;;;;;;;;28.80;91.20;;;;;;1894958;75;20154;-77
2021/08/03 12:21:59;;;;;;;;;;;28.70;91.20;;;;;;1889861;75;20698;-76
2021/08/03 12:24:28;;;;;;;;;;;28.70;91.30;;;;;;1892807;75;20289;-77
2021/08/03 12:26:59;;;;;;;;;;;28.70;91.30;;;;;;1907635;74;20194;-77
2021/08/03 12:29:30;;;;;;;;;;;28.70;91.40;;;;;;1898262;74;20206;-77
2021/08/03 12:32:00;;;;;;;;;;;28.70;91.30;;;;;;1875732;75;20521;-77
2021/08/03 12:34:31;;;;;;;;;;;28.70;91.20;;;;;;1882692;75;20168;-77
2021/08/03 12:37:09;;;;;;;;;;;28.70;91.10;;;;;;1892700;75;20142;-77
2021/08/03 12:42:49;;;;;;;;;;;28.70;91.00;;;;;;1729264;78;20410;-77
2021/08/03 12:45:18;;;;;;;;;;;28.70;90.70;;;;;;1892578;74;20218;-77
2021/08/03 12:47:50;;;;;;;;;;;28.70;90.60;;;;;;1883791;74;20234;-77
2021/08/03 12:50:20;;;;;;;;;;;28.60;90.70;;;;;;1889797;74;20187;-76
2021/08/03 12:52:51;;;;;;;;;;;28.70;90.50;;;;;;1884009;74;20175;-77
2021/08/03 12:55:22;;;;;;;;;;;28.60;90.50;;;;;;1861971;75;20241;-77
2021/08/03 12:57:52;;;;;;;;;;;28.60;90.30;;;;;;1859909;77;20247;-77
2021/08/03 13:00:23;;;;;;;;;;;28.70;90.10;;;;;;1863526;75;20539;-77
2021/08/03 13:02:53;;;;;;;;;;;28.70;89.90;;;;;;1858391;75;20573;-77
2021/08/03 13:05:23;;;;;;;;;;;28.70;89.70;;;;;;1861798;75;20192;-77
2021/08/03 13:07:53;;;;;;;;;;;28.70;90.00;;;;;;1863039;75;20280;-76
2021/08/03 13:10:22;;;;;;;;;;;28.70;89.90;;;;;;1861345;75;20284;-76
2021/08/03 13:12:53;;;;;;;;;;;28.70;90.00;;;;;;1861918;75;20238;-77
2021/08/03 13:15:22;;;;;;;;;;;28.80;89.40;;;;;;1859789;77;20293;-76
2021/08/03 13:17:52;;;;;;;;;;;28.80;89.50;;;;;;1861657;77;20264;-76
2021/08/03 13:20:22;;;;;;;;;;;28.80;89.50;;;;;;1859631;76;20220;-76
2021/08/03 13:22:51;;;;;;;;;;;28.80;89.40;;;;;;1859680;76;20294;-77
2021/08/03 13:25:21;;;;;;;;;;;28.80;89.50;;;;;;1860815;76;20168;-77
2021/08/03 13:27:54;;;;;;;;;;;28.80;89.60;;;;;;1852760;77;20208;-77
2021/08/03 13:30:26;;;;;;;;;;;28.80;89.60;;;;;;1807263;78;20301;-76
2021/08/03 13:32:55;;;;;;;;;;;28.80;90.00;;;;;;1792214;78;20253;-76
2021/08/03 13:35:25;;;;;;;;;;;28.80;90.00;;;;;;1801039;78;20222;-78
2021/08/03 13:37:54;;;;;;;;;;;28.70;90.20;;;;;;1794297;78;20567;-77
2021/08/03 13:40:24;;;;;;;;;;;28.70;90.70;;;;;;1840892;77;20444;-77
2021/08/03 13:42:54;;;;;;;;;;;28.70;90.40;;;;;;1834718;77;20237;-77
2021/08/03 13:45:23;;;;;;;;;;;28.70;90.40;;;;;;1843719;77;20236;-76
2021/08/03 13:47:53;;;;;;;;;;;28.70;90.40;;;;;;1846995;77;20249;-77
2021/08/03 13:50:23;;;;;;;;;;;28.70;90.50;;;;;;1845544;77;20263;-77
2021/08/03 13:52:53;;;;;;;;;;;28.70;90.70;;;;;;1858121;77;20211;-77
2021/08/03 13:55:22;;;;;;;;;;;28.60;91.20;;;;;;1866674;76;20507;-77
2021/08/03 13:57:52;;;;;;;;;;;28.60;90.80;;;;;;1851371;77;20186;-78
2021/08/03 14:00:21;;;;;;;;;;;28.60;90.90;;;;;;1848573;77;20465;-78
2021/08/03 14:02:51;;;;;;;;;;;28.60;91.00;;;;;;1860412;77;20179;-77
2021/08/03 14:05:21;;;;;;;;;;;28.60;91.10;;;;;;1855168;76;20211;-76
2021/08/03 14:07:51;;;;;;;;;;;28.60;91.10;;;;;;1852624;77;20191;-76
2021/08/03 14:10:21;;;;;;;;;;;28.50;91.30;;;;;;1864968;76;20544;-78
2021/08/03 14:12:51;;;;;;;;;;;28.50;91.40;;;;;;1872608;76;20199;-75
2021/08/03 14:15:21;;;;;;;;;;;28.40;91.60;;;;;;1855375;77;20255;-76
2021/08/03 14:17:51;;;;;;;;;;;28.40;91.70;;;;;;1853434;77;20449;-76
2021/08/03 14:20:20;;;;;;;;;;;28.40;91.80;;;;;;1858765;77;20432;-75
2021/08/03 14:22:50;;;;;;;;;;;28.40;91.90;;;;;;1847210;76;20219;-77
2021/08/03 14:25:20;;;;;;;;;;;28.30;92.00;;;;;;1857053;76;20202;-77
2021/08/03 14:27:50;;;;;;;;;;;28.30;92.10;;;;;;1852008;76;20506;-77
2021/08/03 14:30:20;;;;;;;;;;;28.30;92.20;;;;;;1864648;76;20546;-76
2021/08/03 14:32:50;;;;;;;;;;;28.30;92.30;;;;;;1847531;76;20226;-76
2021/08/03 14:35:20;;;;;;;;;;;28.20;92.30;;;;;;1855645;76;20133;-77
2021/08/03 14:37:49;;;;;;;;;;;28.20;92.20;;;;;;1854228;76;20513;-76
2021/08/03 14:40:19;;;;;;;;;;;28.30;92.20;;;;;;1850466;76;20189;-76
2021/08/03 14:42:50;;;;;;;;;;;28.30;92.30;;;;;;1847988;76;20140;-76